sensor_id;sensor_type;location;lat;lon;timestamp;pressure;altitude;pressure_sealevel;temperature;humidity
35806;BME280;21925;44.608;11.580;2023-04-01T00:00:30;100482.91;;;15.34;100.00
35806;BME280;21925;44.608;11.580;2023-04-01T00:02:56;100496.41;;;15.46;100.00
35806;BME280;21925;44.608;11.580;2023-04-01T00:05:22;100501.56;;;15.01;100.00
35806;BME280;21925;44.608;11.580;2023-04-01T00:07:49;100497.75;;;15.19;100.00
35806;BME280;21925;44.608;11.580;2023-04-01T00:10:15;100506.22;;;15.40;100.00
35806;BME280;21925;44.608;11.580;2023-04-01T00:12:41;100505.13;;;15.52;100.00
35806;BME280;21925;44.608;11.580;2023-04-01T00:15:09;100504.28;;;15.48;100.00
35806;BME280;21925;44.608;11.580;2023-04-01T00:17:35;100492.34;;;15.26;98.47
35806;BME280;21925;44.608;11.580;2023-04-01T00:20:01;100492.38;;;15.33;99.68
35806;BME280;21925;44.608;11.580;2023-04-01T00:22:28;100488.81;;;15.36;100.00
35806;BME280;21925;44.608;11.580;2023-04-01T00:24:54;100505.22;;;15.15;100.00
35806;BME280;21925;44.608;11.580;2023-04-01T00:27:20;100503.28;;;15.19;100.00
35806;BME280;21925;44.608;11.580;2023-04-01T00:29:46;100505.34;;;15.29;100.00
35806;BME280;21925;44.608;11.580;2023-04-01T00:32:13;100504.19;;;15.30;100.00
35806;BME280;21925;44.608;11.580;2023-04-01T00:34:39;100516.28;;;14.03;100.00
35806;BME280;21925;44.608;11.580;2023-04-01T00:37:06;100501.31;;;14.04;100.00
35806;BME280;21925;44.608;11.580;2023-04-01T00:39:32;100509.88;;;14.25;100.00
35806;BME280;21925;44.608;11.580;2023-04-01T00:41:59;100501.03;;;14.45;100.00
35806;BME280;21925;44.608;11.580;2023-04-01T00:44:33;100501.59;;;14.25;100.00
35806;BME280;21925;44.608;11.580;2023-04-01T00:47:00;100504.19;;;13.82;100.00
35806;BME280;21925;44.608;11.580;2023-04-01T00:49:45;100506.53;;;13.54;100.00
35806;BME280;21925;44.608;11.580;2023-04-01T00:52:14;100497.44;;;13.50;100.00
35806;BME280;21925;44.608;11.580;2023-04-01T00:54:44;100503.97;;;13.64;100.00
35806;BME280;21925;44.608;11.580;2023-04-01T00:57:31;100501.84;;;13.54;100.00
35806;BME280;21925;44.608;11.580;2023-04-01T01:00:00;100510.19;;;13.10;100.00
35806;BME280;21925;44.608;11.580;2023-04-01T01:02:26;100502.00;;;13.39;100.00
35806;BME280;21925;44.608;11.580;2023-04-01T01:04:51;100512.31;;;14.01;100.00
35806;BME280;21925;44.608;11.580;2023-04-01T01:13:34;100480.44;;;14.36;100.00
35806;BME280;21925;44.608;11.580;2023-04-01T01:16:10;100494.69;;;14.41;100.00
35806;BME280;21925;44.608;11.580;2023-04-01T01:18:39;100487.75;;;14.58;100.00
35806;BME280;21925;44.608;11.580;2023-04-01T01:27:18;100484.38;;;14.35;100.00
35806;BME280;21925;44.608;11.580;2023-04-01T01:37:40;100480.69;;;13.91;100.00
35806;BME280;21925;44.608;11.580;2023-04-01T01:40:09;100483.78;;;13.86;100.00
35806;BME280;21925;44.608;11.580;2023-04-01T01:42:40;100489.03;;;13.98;100.00
35806;BME280;21925;44.608;11.580;2023-04-01T01:45:10;100480.25;;;13.89;100.00
35806;BME280;21925;44.608;11.580;2023-04-01T01:47:37;100487.16;;;14.06;100.00
35806;BME280;21925;44.608;11.580;2023-04-01T01:50:05;100488.09;;;14.13;100.00
35806;BME280;21925;44.608;11.580;2023-04-01T01:52:31;100484.13;;;14.14;100.00
35806;BME280;21925;44.608;11.580;2023-04-01T01:54:57;100502.84;;;14.02;100.00
35806;BME280;21925;44.608;11.580;2023-04-01T01:57:34;100493.38;;;13.99;100.00
35806;BME280;21925;44.608;11.580;2023-04-01T02:00:08;100490.03;;;13.83;100.00
35806;BME280;21925;44.608;11.580;2023-04-01T02:02:40;100476.53;;;14.04;100.00
35806;BME280;21925;44.608;11.580;2023-04-01T02:05:10;100482.84;;;13.75;100.00
35806;BME280;21925;44.608;11.580;2023-04-01T02:07:37;100477.00;;;13.80;100.00
35806;BME280;21925;44.608;11.580;2023-04-01T02:10:05;100475.56;;;13.60;100.00
35806;BME280;21925;44.608;11.580;2023-04-01T02:12:33;100491.13;;;13.50;100.00
35806;BME280;21925;44.608;11.580;2023-04-01T02:15:03;100479.56;;;13.66;100.00
35806;BME280;21925;44.608;11.580;2023-04-01T02:17:31;100477.34;;;13.50;100.00
35806;BME280;21925;44.608;11.580;2023-04-01T02:22:30;100487.44;;;13.64;100.00
35806;BME280;21925;44.608;11.580;2023-04-01T02:25:05;100487.59;;;13.78;100.00
35806;BME280;21925;44.608;11.580;2023-04-01T02:27:32;100503.50;;;13.88;100.00
35806;BME280;21925;44.608;11.580;2023-04-01T02:29:58;100497.13;;;13.84;100.00
35806;BME280;21925;44.608;11.580;2023-04-01T02:32:24;100480.97;;;13.83;100.00
35806;BME280;21925;44.608;11.580;2023-04-01T02:34:50;100493.19;;;13.85;100.00
35806;BME280;21925;44.608;11.580;2023-04-01T02:37:17;100484.59;;;13.90;100.00
35806;BME280;21925;44.608;11.580;2023-04-01T02:39:43;100475.72;;;13.74;100.00
35806;BME280;21925;44.608;11.580;2023-04-01T02:42:09;100480.38;;;13.67;100.00
35806;BME280;21925;44.608;11.580;2023-04-01T02:44:34;100484.97;;;13.59;100.00
35806;BME280;21925;44.608;11.580;2023-04-01T02:47:00;100483.59;;;13.72;100.00
35806;BME280;21925;44.608;11.580;2023-04-01T02:49:26;100495.78;;;13.71;100.00
35806;BME280;21925;44.608;11.580;2023-04-01T02:51:51;100504.44;;;13.73;100.00
35806;BME280;21925;44.608;11.580;2023-04-01T02:54:18;100501.97;;;13.65;100.00
35806;BME280;21925;44.608;11.580;2023-04-01T02:56:43;100504.84;;;13.72;100.00
35806;BME280;21925;44.608;11.580;2023-04-01T02:59:09;100503.03;;;13.83;100.00
35806;BME280;21925;44.608;11.580;2023-04-01T03:01:35;100502.03;;;13.68;100.00
35806;BME280;21925;44.608;11.580;2023-04-01T03:04:00;100512.47;;;13.56;100.00
35806;BME280;21925;44.608;11.580;2023-04-01T03:06:26;100504.50;;;13.48;100.00
35806;BME280;21925;44.608;11.580;2023-04-01T03:08:51;100511.75;;;13.59;100.00
35806;BME280;21925;44.608;11.580;2023-04-01T03:11:17;100525.31;;;13.74;100.00
35806;BME280;21925;44.608;11.580;2023-04-01T03:13:43;100513.50;;;13.45;100.00
35806;BME280;21925;44.608;11.580;2023-04-01T03:16:09;100517.84;;;13.46;100.00
35806;BME280;21925;44.608;11.580;2023-04-01T03:18:35;100526.59;;;13.51;100.00
35806;BME280;21925;44.608;11.580;2023-04-01T03:21:18;100526.22;;;13.52;100.00
35806;BME280;21925;44.608;11.580;2023-04-01T03:23:44;100513.69;;;13.33;100.00
35806;BME280;21925;44.608;11.580;2023-04-01T03:26:10;100518.28;;;13.48;100.00
35806;BME280;21925;44.608;11.580;2023-04-01T03:28:36;100522.81;;;13.62;100.00
35806;BME280;21925;44.608;11.580;2023-04-01T03:31:02;100526.53;;;13.48;100.00
35806;BME280;21925;44.608;11.580;2023-04-01T03:33:31;100526.44;;;13.41;100.00
35806;BME280;21925;44.608;11.580;2023-04-01T03:35:57;100508.84;;;13.49;100.00
35806;BME280;21925;44.608;11.580;2023-04-01T03:38:22;100513.16;;;13.50;100.00
35806;BME280;21925;44.608;11.580;2023-04-01T03:40:48;100521.44;;;13.50;100.00
35806;BME280;21925;44.608;11.580;2023-04-01T03:43:13;100543.16;;;13.54;100.00
35806;BME280;21925;44.608;11.580;2023-04-01T03:45:49;100550.41;;;13.66;100.00
35806;BME280;21925;44.608;11.580;2023-04-01T03:48:15;100550.94;;;13.49;100.00
35806;BME280;21925;44.608;11.580;2023-04-01T03:50:41;100553.56;;;13.64;100.00
35806;BME280;21925;44.608;11.580;2023-04-01T03:53:07;100536.50;;;13.55;100.00
35806;BME280;21925;44.608;11.580;2023-04-01T03:55:33;100533.84;;;13.62;100.00
35806;BME280;21925;44.608;11.580;2023-04-01T03:58:00;100538.28;;;13.45;100.00
35806;BME280;21925;44.608;11.580;2023-04-01T04:00:28;100534.22;;;13.35;100.00
35806;BME280;21925;44.608;11.580;2023-04-01T04:02:54;100534.94;;;13.32;100.00
35806;BME280;21925;44.608;11.580;2023-04-01T04:05:27;100539.22;;;13.30;100.00
35806;BME280;21925;44.608;11.580;2023-04-01T04:07:53;100540.41;;;13.29;100.00
35806;BME280;21925;44.608;11.580;2023-04-01T04:10:19;100539.13;;;13.23;100.00
35806;BME280;21925;44.608;11.580;2023-04-01T04:12:45;100540.00;;;13.04;100.00
35806;BME280;21925;44.608;11.580;2023-04-01T04:15:11;100529.22;;;12.32;100.00
35806;BME280;21925;44.608;11.580;2023-04-01T04:17:37;100521.84;;;11.98;100.00
35806;BME280;21925;44.608;11.580;2023-04-01T04:20:03;100545.00;;;12.35;100.00
35806;BME280;21925;44.608;11.580;2023-04-01T04:22:29;100541.66;;;11.89;100.00
35806;BME280;21925;44.608;11.580;2023-04-01T04:24:55;100535.38;;;12.07;100.00
35806;BME280;21925;44.608;11.580;2023-04-01T04:27:20;100547.59;;;12.28;100.00
35806;BME280;21925;44.608;11.580;2023-04-01T04:30:00;100541.66;;;12.68;100.00
35806;BME280;21925;44.608;11.580;2023-04-01T04:32:26;100525.41;;;12.59;100.00
35806;BME280;21925;44.608;11.580;2023-04-01T04:34:52;100550.91;;;12.78;100.00
35806;BME280;21925;44.608;11.580;2023-04-01T04:37:18;100538.22;;;12.93;100.00
35806;BME280;21925;44.608;11.580;2023-04-01T04:39:44;100530.72;;;12.90;100.00
35806;BME280;21925;44.608;11.580;2023-04-01T04:42:10;100535.47;;;12.93;100.00
35806;BME280;21925;44.608;11.580;2023-04-01T04:44:35;100539.47;;;12.95;100.00
35806;BME280;21925;44.608;11.580;2023-04-01T04:47:01;100542.38;;;13.06;100.00
35806;BME280;21925;44.608;11.580;2023-04-01T04:49:27;100538.16;;;12.89;100.00
35806;BME280;21925;44.608;11.580;2023-04-01T04:51:52;100540.81;;;12.86;100.00
35806;BME280;21925;44.608;11.580;2023-04-01T04:54:21;100523.94;;;12.65;100.00
35806;BME280;21925;44.608;11.580;2023-04-01T04:56:58;100538.13;;;12.67;100.00
35806;BME280;21925;44.608;11.580;2023-04-01T04:59:25;100545.16;;;12.87;100.00
35806;BME280;21925;44.608;11.580;2023-04-01T05:02:17;100548.38;;;12.48;100.00
35806;BME280;21925;44.608;11.580;2023-04-01T05:04:42;100562.97;;;12.52;100.00
35806;BME280;21925;44.608;11.580;2023-04-01T05:07:09;100561.75;;;12.49;100.00
35806;BME280;21925;44.608;11.580;2023-04-01T05:09:35;100565.22;;;12.65;100.00
35806;BME280;21925;44.608;11.580;2023-04-01T05:12:01;100569.69;;;12.73;100.00
35806;BME280;21925;44.608;11.580;2023-04-01T05:14:39;100565.91;;;12.81;100.00
35806;BME280;21925;44.608;11.580;2023-04-01T05:17:10;100568.34;;;12.86;100.00
35806;BME280;21925;44.608;11.580;2023-04-01T05:19:37;100573.19;;;12.92;100.00
35806;BME280;21925;44.608;11.580;2023-04-01T05:22:02;100580.25;;;12.90;100.00
35806;BME280;21925;44.608;11.580;2023-04-01T05:24:30;100576.34;;;12.91;100.00
35806;BME280;21925;44.608;11.580;2023-04-01T05:26:55;100578.28;;;12.90;100.00
35806;BME280;21925;44.608;11.580;2023-04-01T05:29:25;100578.66;;;12.89;100.00
35806;BME280;21925;44.608;11.580;2023-04-01T05:31:56;100567.16;;;12.87;100.00
35806;BME280;21925;44.608;11.580;2023-04-01T05:34:22;100579.16;;;12.94;100.00
35806;BME280;21925;44.608;11.580;2023-04-01T05:36:47;100577.06;;;13.10;100.00
35806;BME280;21925;44.608;11.580;2023-04-01T05:39:13;100589.34;;;12.94;100.00
35806;BME280;21925;44.608;11.580;2023-04-01T05:41:39;100583.22;;;13.04;100.00
35806;BME280;21925;44.608;11.580;2023-04-01T05:44:06;100580.78;;;13.21;100.00
35806;BME280;21925;44.608;11.580;2023-04-01T05:46:41;100577.97;;;13.18;100.00
35806;BME280;21925;44.608;11.580;2023-04-01T05:49:24;100607.69;;;13.09;100.00
35806;BME280;21925;44.608;11.580;2023-04-01T05:51:50;100610.34;;;13.24;100.00
35806;BME280;21925;44.608;11.580;2023-04-01T05:54:18;100604.00;;;13.20;100.00
35806;BME280;21925;44.608;11.580;2023-04-01T05:56:44;100615.13;;;13.27;100.00
35806;BME280;21925;44.608;11.580;2023-04-01T05:59:11;100621.59;;;13.16;100.00
35806;BME280;21925;44.608;11.580;2023-04-01T06:01:37;100621.22;;;13.40;100.00
35806;BME280;21925;44.608;11.580;2023-04-01T06:04:03;100614.28;;;13.49;100.00
35806;BME280;21925;44.608;11.580;2023-04-01T06:06:30;100614.91;;;13.39;100.00
35806;BME280;21925;44.608;11.580;2023-04-01T06:09:18;100611.91;;;13.48;100.00
35806;BME280;21925;44.608;11.580;2023-04-01T06:29:06;100626.75;;;14.46;100.00
35806;BME280;21925;44.608;11.580;2023-04-01T06:40:06;100628.38;;;14.84;100.00
35806;BME280;21925;44.608;11.580;2023-04-01T06:48:43;100624.78;;;15.19;100.00
35806;BME280;21925;44.608;11.580;2023-04-01T06:54:29;100635.44;;;15.17;100.00
35806;BME280;21925;44.608;11.580;2023-04-01T06:59:40;100636.34;;;15.28;100.00
35806;BME280;21925;44.608;11.580;2023-04-01T07:04:39;100618.47;;;15.59;100.00
35806;BME280;21925;44.608;11.580;2023-04-01T07:07:40;100645.81;;;15.71;100.00
35806;BME280;21925;44.608;11.580;2023-04-01T07:10:17;100641.38;;;16.16;100.00
35806;BME280;21925;44.608;11.580;2023-04-01T07:13:15;100649.94;;;15.97;100.00
35806;BME280;21925;44.608;11.580;2023-04-01T07:16:05;100651.63;;;16.12;100.00
35806;BME280;21925;44.608;11.580;2023-04-01T07:18:46;100649.97;;;16.04;96.84
35806;BME280;21925;44.608;11.580;2023-04-01T07:21:40;100654.56;;;16.33;98.19
35806;BME280;21925;44.608;11.580;2023-04-01T07:24:21;100652.59;;;16.44;99.20
35806;BME280;21925;44.608;11.580;2023-04-01T07:27:02;100660.66;;;16.74;95.96
35806;BME280;21925;44.608;11.580;2023-04-01T07:29:32;100668.06;;;16.49;94.81
35806;BME280;21925;44.608;11.580;2023-04-01T07:37:42;100660.56;;;16.49;90.23
35806;BME280;21925;44.608;11.580;2023-04-01T07:49:08;100666.31;;;17.15;85.57
35806;BME280;21925;44.608;11.580;2023-04-01T07:51:57;100674.56;;;16.87;80.40
35806;BME280;21925;44.608;11.580;2023-04-01T07:54:47;100669.50;;;17.10;84.74
35806;BME280;21925;44.608;11.580;2023-04-01T07:57:30;100667.19;;;17.44;85.18
35806;BME280;21925;44.608;11.580;2023-04-01T08:03:03;100665.50;;;17.04;81.54
35806;BME280;21925;44.608;11.580;2023-04-01T08:17:49;100670.75;;;17.79;74.84
35806;BME280;21925;44.608;11.580;2023-04-01T08:25:05;100666.44;;;17.85;72.61
35806;BME280;21925;44.608;11.580;2023-04-01T08:27:51;100668.72;;;18.18;73.08
35806;BME280;21925;44.608;11.580;2023-04-01T08:30:23;100672.31;;;18.32;72.12
35806;BME280;21925;44.608;11.580;2023-04-01T08:33:13;100657.66;;;18.07;69.60
35806;BME280;21925;44.608;11.580;2023-04-01T08:35:41;100665.94;;;18.45;69.17
35806;BME280;21925;44.608;11.580;2023-04-01T08:38:54;100666.31;;;18.47;71.09
35806;BME280;21925;44.608;11.580;2023-04-01T08:50:08;100667.06;;;18.65;66.85
35806;BME280;21925;44.608;11.580;2023-04-01T09:10:05;100666.25;;;19.91;61.27
35806;BME280;21925;44.608;11.580;2023-04-01T09:16:27;100664.88;;;19.69;61.83
35806;BME280;21925;44.608;11.580;2023-04-01T09:18:43;100659.50;;;19.92;62.56
35806;BME280;21925;44.608;11.580;2023-04-01T09:21:28;100647.59;;;19.95;61.62
35806;BME280;21925;44.608;11.580;2023-04-01T09:30:07;100668.97;;;19.54;58.96
35806;BME280;21925;44.608;11.580;2023-04-01T09:46:04;100656.31;;;21.00;57.95
35806;BME280;21925;44.608;11.580;2023-04-01T09:51:29;100657.97;;;21.24;56.35
35806;BME280;21925;44.608;11.580;2023-04-01T10:12:28;100641.75;;;21.42;56.01
35806;BME280;21925;44.608;11.580;2023-04-01T10:15:17;100639.69;;;21.72;56.90
35806;BME280;21925;44.608;11.580;2023-04-01T10:50:16;100621.44;;;23.42;53.88
35806;BME280;21925;44.608;11.580;2023-04-01T11:11:28;100580.09;;;22.98;47.11
35806;BME280;21925;44.608;11.580;2023-04-01T11:33:57;100564.25;;;23.75;47.18
35806;BME280;21925;44.608;11.580;2023-04-01T11:51:28;100566.59;;;23.29;44.62
35806;BME280;21925;44.608;11.580;2023-04-01T11:56:56;100553.25;;;23.52;44.22
35806;BME280;21925;44.608;11.580;2023-04-01T12:18:16;100537.94;;;24.29;43.64
35806;BME280;21925;44.608;11.580;2023-04-01T12:20:49;100529.06;;;24.30;45.16
35806;BME280;21925;44.608;11.580;2023-04-01T12:26:10;100527.19;;;24.40;42.89
35806;BME280;21925;44.608;11.580;2023-04-01T12:28:48;100524.69;;;24.70;45.35
35806;BME280;21925;44.608;11.580;2023-04-01T12:37:02;100513.41;;;23.76;41.15
35806;BME280;21925;44.608;11.580;2023-04-01T12:50:27;100537.91;;;24.16;40.78
35806;BME280;21925;44.608;11.580;2023-04-01T13:16:27;100509.47;;;24.30;38.17
35806;BME280;21925;44.608;11.580;2023-04-01T13:26:39;100501.00;;;24.18;37.81
35806;BME280;21925;44.608;11.580;2023-04-01T13:42:47;100506.19;;;23.91;36.70
35806;BME280;21925;44.608;11.580;2023-04-01T13:51:29;100486.53;;;24.48;36.58
35806;BME280;21925;44.608;11.580;2023-04-01T13:57:23;100484.28;;;24.43;38.58
35806;BME280;21925;44.608;11.580;2023-04-01T14:02:51;100473.63;;;24.38;37.51
35806;BME280;21925;44.608;11.580;2023-04-01T14:10:43;100477.03;;;24.17;37.30
35806;BME280;21925;44.608;11.580;2023-04-01T14:13:29;100463.69;;;24.62;38.13
35806;BME280;21925;44.608;11.580;2023-04-01T14:21:48;100468.03;;;24.50;38.96
35806;BME280;21925;44.608;11.580;2023-04-01T14:35:46;100421.16;;;24.51;36.69
35806;BME280;21925;44.608;11.580;2023-04-01T14:41:17;100438.44;;;24.87;39.17
35806;BME280;21925;44.608;11.580;2023-04-01T14:49:04;100401.47;;;25.13;34.56
35806;BME280;21925;44.608;11.580;2023-04-01T14:51:33;100431.44;;;25.71;33.83
35806;BME280;21925;44.608;11.580;2023-04-01T14:54:08;100429.09;;;25.82;36.01
35806;BME280;21925;44.608;11.580;2023-04-01T14:56:49;100427.16;;;26.00;36.40
35806;BME280;21925;44.608;11.580;2023-04-01T15:04:43;100422.28;;;25.37;35.22
35806;BME280;21925;44.608;11.580;2023-04-01T15:07:51;100424.25;;;25.02;35.28
35806;BME280;21925;44.608;11.580;2023-04-01T15:10:52;100421.19;;;25.34;36.01
35806;BME280;21925;44.608;11.580;2023-04-01T15:16:11;100423.66;;;25.87;34.06
35806;BME280;21925;44.608;11.580;2023-04-01T15:19:06;100419.91;;;26.12;33.13
35806;BME280;21925;44.608;11.580;2023-04-01T15:32:25;100420.72;;;25.91;33.20
35806;BME280;21925;44.608;11.580;2023-04-01T15:35:03;100414.88;;;26.37;33.43
35806;BME280;21925;44.608;11.580;2023-04-01T15:37:37;100420.72;;;26.43;33.41
35806;BME280;21925;44.608;11.580;2023-04-01T15:40:33;100421.97;;;26.81;33.63
35806;BME280;21925;44.608;11.580;2023-04-01T15:43:40;100419.88;;;27.12;35.07
35806;BME280;21925;44.608;11.580;2023-04-01T16:00:45;100395.97;;;27.43;33.72
35806;BME280;21925;44.608;11.580;2023-04-01T16:22:17;100387.00;;;29.13;37.19
35806;BME280;21925;44.608;11.580;2023-04-01T16:27:54;100411.19;;;28.40;37.85
35806;BME280;21925;44.608;11.580;2023-04-01T16:30:34;100405.34;;;28.85;38.14
35806;BME280;21925;44.608;11.580;2023-04-01T16:35:31;100410.03;;;27.16;40.49
35806;BME280;21925;44.608;11.580;2023-04-01T16:43:38;100412.59;;;25.72;41.64
35806;BME280;21925;44.608;11.580;2023-04-01T16:54:36;100425.91;;;24.01;45.50
35806;BME280;21925;44.608;11.580;2023-04-01T17:30:27;100444.69;;;20.86;47.35
35806;BME280;21925;44.608;11.580;2023-04-01T17:33:12;100453.59;;;20.51;47.72
35806;BME280;21925;44.608;11.580;2023-04-01T17:36:04;100467.47;;;20.55;48.17
35806;BME280;21925;44.608;11.580;2023-04-01T17:38:47;100466.50;;;20.38;48.71
35806;BME280;21925;44.608;11.580;2023-04-01T17:46:38;100465.78;;;20.01;49.56
35806;BME280;21925;44.608;11.580;2023-04-01T17:49:42;100469.66;;;20.10;49.46
35806;BME280;21925;44.608;11.580;2023-04-01T18:00:47;100476.84;;;19.38;51.49
35806;BME280;21925;44.608;11.580;2023-04-01T18:06:17;100476.44;;;19.36;51.27
35806;BME280;21925;44.608;11.580;2023-04-01T18:09:03;100484.66;;;19.50;51.36
35806;BME280;21925;44.608;11.580;2023-04-01T18:25:53;100492.53;;;19.15;52.45
35806;BME280;21925;44.608;11.580;2023-04-01T18:28:38;100487.41;;;19.06;52.15
35806;BME280;21925;44.608;11.580;2023-04-01T18:31:18;100481.91;;;18.99;52.52
35806;BME280;21925;44.608;11.580;2023-04-01T18:36:50;100490.94;;;18.59;53.79
35806;BME280;21925;44.608;11.580;2023-04-01T18:39:40;100503.72;;;18.43;53.81
35806;BME280;21925;44.608;11.580;2023-04-01T18:45:35;100505.41;;;18.20;55.12
35806;BME280;21925;44.608;11.580;2023-04-01T18:50:56;100496.78;;;17.93;55.48
35806;BME280;21925;44.608;11.580;2023-04-01T18:53:38;100510.66;;;17.93;55.27
35806;BME280;21925;44.608;11.580;2023-04-01T18:56:12;100504.72;;;17.95;54.89
35806;BME280;21925;44.608;11.580;2023-04-01T18:58:48;100509.88;;;17.93;54.94
35806;BME280;21925;44.608;11.580;2023-04-01T19:07:46;100530.13;;;17.69;55.30
35806;BME280;21925;44.608;11.580;2023-04-01T19:10:26;100528.91;;;17.91;54.25
35806;BME280;21925;44.608;11.580;2023-04-01T19:13:22;100530.88;;;18.01;55.39
35806;BME280;21925;44.608;11.580;2023-04-01T19:21:19;100503.25;;;17.38;57.41
35806;BME280;21925;44.608;11.580;2023-04-01T19:35:19;100529.75;;;16.90;58.71
35806;BME280;21925;44.608;11.580;2023-04-01T19:43:13;100529.38;;;16.92;59.14
35806;BME280;21925;44.608;11.580;2023-04-01T19:45:51;100524.97;;;16.70;59.08
35806;BME280;21925;44.608;11.580;2023-04-01T19:51:12;100517.50;;;16.74;59.23
35806;BME280;21925;44.608;11.580;2023-04-01T19:56:39;100524.22;;;16.77;58.32
35806;BME280;21925;44.608;11.580;2023-04-01T20:02:25;100527.41;;;17.03;57.79
35806;BME280;21925;44.608;11.580;2023-04-01T20:04:54;100528.22;;;17.00;58.11
35806;BME280;21925;44.608;11.580;2023-04-01T20:07:31;100521.03;;;16.88;58.28
35806;BME280;21925;44.608;11.580;2023-04-01T20:13:18;100522.25;;;16.91;58.59
35806;BME280;21925;44.608;11.580;2023-04-01T20:15:59;100515.13;;;16.93;58.35
35806;BME280;21925;44.608;11.580;2023-04-01T20:18:34;100510.78;;;17.10;58.66
35806;BME280;21925;44.608;11.580;2023-04-01T20:21:06;100508.00;;;17.13;57.87
35806;BME280;21925;44.608;11.580;2023-04-01T20:23:52;100523.03;;;16.98;57.63
35806;BME280;21925;44.608;11.580;2023-04-01T20:26:34;100522.25;;;16.98;57.85
35806;BME280;21925;44.608;11.580;2023-04-01T20:37:42;100519.09;;;16.85;59.69
35806;BME280;21925;44.608;11.580;2023-04-01T20:50:59;100531.69;;;16.55;59.91
35806;BME280;21925;44.608;11.580;2023-04-01T20:53:29;100532.50;;;16.70;60.47
35806;BME280;21925;44.608;11.580;2023-04-01T21:01:25;100526.16;;;16.66;60.95
35806;BME280;21925;44.608;11.580;2023-04-01T21:15:20;100547.13;;;16.67;60.90
35806;BME280;21925;44.608;11.580;2023-04-01T21:17:52;100543.06;;;16.33;61.25
35806;BME280;21925;44.608;11.580;2023-04-01T21:23:39;100542.72;;;16.45;61.18
35806;BME280;21925;44.608;11.580;2023-04-01T21:26:24;100550.63;;;16.43;61.33
35806;BME280;21925;44.608;11.580;2023-04-01T21:28:59;100548.25;;;16.38;62.21
35806;BME280;21925;44.608;11.580;2023-04-01T21:31:45;100546.66;;;16.37;61.80
35806;BME280;21925;44.608;11.580;2023-04-01T21:43:07;100547.41;;;16.34;62.81
35806;BME280;21925;44.608;11.580;2023-04-01T21:51:43;100545.13;;;16.57;62.30
35806;BME280;21925;44.608;11.580;2023-04-01T21:57:23;100544.28;;;16.39;63.97
35806;BME280;21925;44.608;11.580;2023-04-01T22:02:58;100561.63;;;16.29;63.58
35806;BME280;21925;44.608;11.580;2023-04-01T22:05:31;100552.97;;;16.41;63.05
35806;BME280;21925;44.608;11.580;2023-04-01T22:08:20;100563.22;;;16.30;63.77
35806;BME280;21925;44.608;11.580;2023-04-01T22:10:56;100564.81;;;16.31;63.38
35806;BME280;21925;44.608;11.580;2023-04-01T22:13:55;100553.59;;;16.06;64.28
35806;BME280;21925;44.608;11.580;2023-04-01T22:24:37;100553.66;;;16.24;62.77
35806;BME280;21925;44.608;11.580;2023-04-01T22:30:20;100555.94;;;16.04;63.49
35806;BME280;21925;44.608;11.580;2023-04-01T22:33:03;100565.50;;;16.17;63.11
35806;BME280;21925;44.608;11.580;2023-04-01T22:43:38;100559.28;;;15.63;65.09
35806;BME280;21925;44.608;11.580;2023-04-01T22:46:42;100556.72;;;15.98;64.58
35806;BME280;21925;44.608;11.580;2023-04-01T22:49:20;100557.03;;;15.83;64.21
35806;BME280;21925;44.608;11.580;2023-04-01T22:52:01;100558.94;;;15.75;65.41
35806;BME280;21925;44.608;11.580;2023-04-01T22:54:39;100555.97;;;16.08;64.29
35806;BME280;21925;44.608;11.580;2023-04-01T23:02:38;100552.06;;;16.19;63.41
35806;BME280;21925;44.608;11.580;2023-04-01T23:05:10;100558.22;;;15.85;64.44
35806;BME280;21925;44.608;11.580;2023-04-01T23:13:12;100561.31;;;15.73;67.00
35806;BME280;21925;44.608;11.580;2023-04-01T23:15:41;100565.50;;;16.14;64.86
35806;BME280;21925;44.608;11.580;2023-04-01T23:28:57;100585.50;;;15.33;69.18
35806;BME280;21925;44.608;11.580;2023-04-01T23:33:56;100593.09;;;15.46;68.40
35806;BME280;21925;44.608;11.580;2023-04-01T23:36:24;100587.00;;;15.23;68.54
35806;BME280;21925;44.608;11.580;2023-04-01T23:38:50;100597.44;;;15.04;70.71
35806;BME280;21925;44.608;11.580;2023-04-01T23:41:20;100594.28;;;14.66;72.17
35806;BME280;21925;44.608;11.580;2023-04-01T23:43:54;100581.72;;;14.72;71.77
35806;BME280;21925;44.608;11.580;2023-04-01T23:46:21;100601.94;;;14.83;72.26
35806;BME280;21925;44.608;11.580;2023-04-01T23:48:47;100594.28;;;14.66;72.20
35806;BME280;21925;44.608;11.580;2023-04-01T23:51:20;100600.41;;;14.52;73.22
35806;BME280;21925;44.608;11.580;2023-04-01T23:53:46;100585.97;;;14.30;74.25
35806;BME280;21925;44.608;11.580;2023-04-01T23:56:16;100594.13;;;14.52;74.23
35806;BME280;21925;44.608;11.580;2023-04-01T23:58:48;100593.28;;;14.19;73.65
